createdAt,value
2018-08-18T00:01:27.954Z,13.47
2018-08-18T00:03:56.119Z,12.43
2018-08-18T00:06:24.334Z,14.83
2018-08-18T00:08:52.513Z,12.20
2018-08-18T00:11:21.162Z,14.10
2018-08-18T00:13:56.574Z,13.83
2018-08-18T00:16:25.743Z,13.40
2018-08-18T00:18:58.508Z,14.40
2018-08-18T00:21:29.006Z,14.03
2018-08-18T00:24:06.720Z,13.23
2018-08-18T00:26:34.874Z,13.73
2018-08-18T00:29:03.094Z,13.87
2018-08-18T00:31:31.306Z,14.47
2018-08-18T00:33:59.473Z,15.20
2018-08-18T00:36:27.657Z,14.80
2018-08-18T00:38:57.309Z,15.17
2018-08-18T00:41:26.798Z,14.83
2018-08-18T00:43:55.160Z,14.97
2018-08-18T00:46:25.199Z,15.47
2018-08-18T00:48:53.385Z,15.10
2018-08-18T00:51:25.738Z,15.37
2018-08-18T00:53:53.906Z,16.30
2018-08-18T00:56:22.290Z,15.77
2018-08-18T00:58:52.120Z,16.60
2018-08-18T01:01:20.343Z,17.67
2018-08-18T01:03:53.983Z,17.17
2018-08-18T01:06:26.434Z,16.27
2018-08-18T01:08:55.961Z,15.70
2018-08-18T01:11:24.346Z,15.23
2018-08-18T01:13:53.111Z,16.20
2018-08-18T01:16:21.279Z,17.20
2018-08-18T01:18:49.986Z,16.43
2018-08-18T01:21:18.186Z,17.27
2018-08-18T01:23:46.342Z,17.47
2018-08-18T01:26:14.503Z,19.03
2018-08-18T01:28:42.646Z,19.23
2018-08-18T01:31:18.817Z,17.63
2018-08-18T01:33:46.998Z,18.13
2018-08-18T01:36:15.166Z,18.27
2018-08-18T01:38:43.363Z,17.40
2018-08-18T01:41:17.770Z,16.83
2018-08-18T01:43:46.896Z,19.30
2018-08-18T01:46:17.289Z,17.47
2018-08-18T01:48:47.331Z,16.60
2018-08-18T01:51:18.478Z,17.67
2018-08-18T01:53:47.562Z,16.87
2018-08-18T01:56:16.579Z,19.07
2018-08-18T01:58:44.734Z,19.93
2018-08-18T02:01:12.938Z,23.60
2018-08-18T02:03:41.122Z,20.53
2018-08-18T02:06:09.302Z,19.30
2018-08-18T02:15:56.617Z,23.63
2018-08-18T02:18:24.766Z,25.73
2018-08-18T02:20:52.910Z,23.63
2018-08-18T02:23:21.827Z,24.37
2018-08-18T02:25:50.001Z,25.50
2018-08-18T02:28:26.574Z,24.77
2018-08-18T02:30:54.722Z,27.87
2018-08-18T02:33:22.876Z,26.90
2018-08-18T02:35:51.566Z,29.43
2018-08-18T02:38:19.740Z,30.07
2018-08-18T02:40:47.895Z,28.57
2018-08-18T02:43:23.133Z,30.43
2018-08-18T02:45:51.290Z,31.70
2018-08-18T02:48:20.249Z,32.13
2018-08-18T02:50:49.494Z,29.07
2018-08-18T02:53:25.162Z,27.50
2018-08-18T02:55:54.142Z,27.70
2018-08-18T02:58:22.306Z,26.87
2018-08-18T03:00:50.461Z,29.17
2018-08-18T03:03:18.982Z,28.80
2018-08-18T03:05:47.190Z,26.57
2018-08-18T03:08:15.330Z,32.23
2018-08-18T03:10:43.495Z,27.50
2018-08-18T03:13:11.654Z,27.80
2018-08-18T03:15:51.907Z,27.60
2018-08-18T03:18:31.170Z,29.43
2018-08-18T03:21:00.046Z,29.47
2018-08-18T03:23:28.197Z,27.73
2018-08-18T03:25:56.351Z,29.20
2018-08-18T03:28:24.535Z,29.07
2018-08-18T03:30:53.045Z,27.17
2018-08-18T03:33:21.239Z,25.77
2018-08-18T03:35:49.428Z,29.80
2018-08-18T03:38:17.588Z,28.27
2018-08-18T03:40:45.819Z,28.70
2018-08-18T03:43:13.974Z,27.30
2018-08-18T03:45:42.151Z,24.33
2018-08-18T03:48:10.311Z,31.30
2018-08-18T03:50:46.069Z,31.17
2018-08-18T03:53:19.258Z,23.10
2018-08-18T03:55:47.451Z,22.50
2018-08-18T03:58:15.632Z,23.20
2018-08-18T04:00:43.789Z,21.47
2018-08-18T04:03:11.959Z,20.27
2018-08-18T04:05:40.106Z,22.67
2018-08-18T04:08:08.254Z,21.87
2018-08-18T04:10:36.414Z,19.57
2018-08-18T04:13:04.583Z,21.60
2018-08-18T04:15:32.795Z,23.20
2018-08-18T04:18:05.198Z,23.47
2018-08-18T04:20:33.374Z,23.67
2018-08-18T04:23:01.519Z,24.63
2018-08-18T04:25:29.682Z,25.67
2018-08-18T04:27:57.941Z,22.57
2018-08-18T04:30:26.131Z,22.90
2018-08-18T04:32:59.609Z,24.77
2018-08-18T04:35:28.863Z,23.80
2018-08-18T04:37:57.913Z,25.47
2018-08-18T04:40:26.502Z,27.97
2018-08-18T04:42:57.446Z,27.43
2018-08-18T04:45:25.654Z,30.87
2018-08-18T04:47:53.802Z,30.33
2018-08-18T04:50:22.323Z,32.53
2018-08-18T04:52:51.410Z,29.30
2018-08-18T04:55:19.910Z,28.43
2018-08-18T04:57:48.072Z,29.73
2018-08-18T05:00:16.398Z,30.67
2018-08-18T05:02:50.022Z,33.83
2018-08-18T05:05:19.585Z,26.97
2018-08-18T05:07:48.807Z,28.03
2018-08-18T05:10:18.782Z,30.90
2018-08-18T05:12:46.955Z,29.10
2018-08-18T05:15:15.982Z,24.57
2018-08-18T05:17:44.143Z,31.70
2018-08-18T05:20:19.999Z,28.07
2018-08-18T05:22:48.193Z,31.57
2018-08-18T05:25:17.094Z,30.07
2018-08-18T05:27:45.252Z,26.83
2018-08-18T05:30:13.401Z,27.67
2018-08-18T05:32:41.562Z,31.23
2018-08-18T05:35:10.083Z,28.53
2018-08-18T05:37:38.266Z,28.07
2018-08-18T05:40:06.946Z,30.23
2018-08-18T05:42:35.102Z,36.13
2018-08-18T05:45:18.898Z,34.23
2018-08-18T05:47:47.046Z,32.90
2018-08-18T05:50:15.242Z,31.07
2018-08-18T05:52:43.478Z,35.13
2018-08-18T05:55:11.644Z,34.37
2018-08-18T05:57:39.789Z,34.70
2018-08-18T06:00:13.480Z,34.13
2018-08-18T06:02:45.874Z,33.60
2018-08-18T06:05:14.023Z,29.77
2018-08-18T06:07:42.188Z,33.13
2018-08-18T06:10:10.332Z,32.13
2018-08-18T06:12:38.522Z,37.13
2018-08-18T06:15:06.670Z,31.53
2018-08-18T06:17:34.826Z,38.13
2018-08-18T06:20:02.983Z,40.00
2018-08-18T06:22:31.188Z,37.50
2018-08-18T06:24:59.333Z,38.47
2018-08-18T06:27:28.574Z,34.47
2018-08-18T06:29:57.666Z,40.17
2018-08-18T06:32:26.048Z,37.40
2018-08-18T06:34:54.291Z,37.60
2018-08-18T06:37:22.332Z,40.53
2018-08-18T06:39:58.857Z,39.07
2018-08-18T06:42:33.262Z,38.93
2018-08-18T06:45:01.434Z,42.60
2018-08-18T06:47:29.615Z,37.30
2018-08-18T06:49:57.854Z,37.10
2018-08-18T06:52:26.019Z,35.07
2018-08-18T06:54:55.276Z,38.47
2018-08-18T06:57:34.926Z,39.87
2018-08-18T07:00:09.166Z,38.47
2018-08-18T07:02:37.585Z,34.93
2018-08-18T07:05:07.199Z,35.90
2018-08-18T07:07:35.349Z,41.50
2018-08-18T07:10:21.597Z,33.20
2018-08-18T07:12:56.134Z,33.67
2018-08-18T07:15:26.849Z,33.93
2018-08-18T07:17:54.997Z,33.60
2018-08-18T07:20:23.514Z,33.67
2018-08-18T07:22:52.310Z,34.67
2018-08-18T07:25:20.534Z,34.77
2018-08-18T07:27:53.372Z,32.53
2018-08-18T07:30:21.595Z,34.70
2018-08-18T07:32:49.757Z,31.60
2018-08-18T07:35:17.902Z,32.50
2018-08-18T07:37:46.058Z,35.60
2018-08-18T07:40:14.261Z,31.20
2018-08-18T07:42:44.074Z,32.57
2018-08-18T07:45:12.267Z,33.97
2018-08-18T07:47:40.423Z,31.33
2018-08-18T07:50:08.588Z,39.37
2018-08-18T07:52:36.762Z,32.77
2018-08-18T07:55:04.935Z,32.57
2018-08-18T07:57:34.103Z,31.07
2018-08-18T08:00:02.600Z,31.60
2018-08-18T08:02:31.028Z,31.03
2018-08-18T08:04:59.816Z,30.13
2018-08-18T08:07:28.224Z,35.03
2018-08-18T08:09:57.489Z,28.70
2018-08-18T08:12:25.717Z,32.87
2018-08-18T08:14:53.886Z,29.83
2018-08-18T08:17:22.042Z,31.17
2018-08-18T08:19:50.186Z,31.50
2018-08-18T08:22:18.335Z,33.40
2018-08-18T08:24:46.482Z,28.80
2018-08-18T08:27:14.642Z,28.90
2018-08-18T08:29:42.787Z,30.30
2018-08-18T08:32:10.938Z,29.77
2018-08-18T08:34:44.601Z,31.40
2018-08-18T08:37:13.485Z,33.93
2018-08-18T08:39:41.978Z,29.87
2018-08-18T08:42:10.162Z,28.37
2018-08-18T08:44:38.735Z,28.40
2018-08-18T08:47:08.378Z,27.53
2018-08-18T08:49:36.741Z,33.03
2018-08-18T08:52:05.205Z,25.80
2018-08-18T08:54:34.495Z,27.80
2018-08-18T08:57:11.583Z,25.10
2018-08-18T08:59:40.785Z,26.87
2018-08-18T09:02:13.038Z,26.17
2018-08-18T09:04:41.211Z,29.07
2018-08-18T09:07:10.831Z,26.40
2018-08-18T09:09:38.989Z,26.03
2018-08-18T09:12:07.482Z,26.70
2018-08-18T09:14:35.640Z,26.50
2018-08-18T09:17:03.873Z,26.77
2018-08-18T09:19:32.015Z,25.00
2018-08-18T09:22:01.222Z,25.40
2018-08-18T09:24:30.504Z,24.17
2018-08-18T09:27:00.001Z,24.33
2018-08-18T09:29:32.468Z,22.57
2018-08-18T09:32:00.598Z,22.70
2018-08-18T09:34:31.402Z,23.00
2018-08-18T09:36:59.554Z,24.03
2018-08-18T09:39:31.943Z,21.93
2018-08-18T09:42:00.782Z,20.40
2018-08-18T09:44:34.239Z,21.13
2018-08-18T09:47:02.387Z,21.17
2018-08-18T09:49:31.381Z,21.73
2018-08-18T09:52:00.282Z,20.13
2018-08-18T09:54:28.909Z,20.10
2018-08-18T09:56:57.865Z,19.97
2018-08-18T09:59:26.711Z,18.17
2018-08-18T10:01:54.885Z,19.97
2018-08-18T10:04:23.030Z,17.57
2018-08-18T10:06:51.487Z,17.90
2018-08-18T10:09:19.634Z,19.67
2018-08-18T10:11:47.786Z,18.17
2018-08-18T10:14:15.924Z,18.10
2018-08-18T10:16:44.066Z,15.57
2018-08-18T10:19:12.197Z,18.47
2018-08-18T10:21:40.350Z,15.70
2018-08-18T10:24:09.586Z,15.83
2018-08-18T10:26:37.809Z,15.27
2018-08-18T10:29:16.682Z,19.00
2018-08-18T10:31:48.339Z,13.77
2018-08-18T10:34:17.982Z,15.77
2018-08-18T10:36:55.675Z,14.80
2018-08-18T10:39:23.810Z,14.30
2018-08-18T10:42:14.561Z,14.57
2018-08-18T10:44:50.119Z,15.87
2018-08-18T10:47:19.614Z,14.50
2018-08-18T10:49:59.106Z,14.83
2018-08-18T10:52:39.305Z,13.73
2018-08-18T10:55:08.810Z,13.60
2018-08-18T10:57:49.481Z,12.67
2018-08-18T11:00:18.990Z,11.17
2018-08-18T11:02:48.394Z,11.97
2018-08-18T11:05:17.042Z,10.80
2018-08-18T11:07:52.498Z,14.00
2018-08-18T11:10:21.576Z,10.80
2018-08-18T11:12:49.855Z,11.07
2018-08-18T11:15:18.023Z,12.73
2018-08-18T11:17:46.174Z,10.17
2018-08-18T11:20:15.296Z,12.00
2018-08-18T11:22:51.799Z,10.70
2018-08-18T11:25:22.946Z,11.80
2018-08-18T11:27:51.570Z,10.77
2018-08-18T11:30:20.846Z,11.90
2018-08-18T11:32:49.635Z,11.63
2018-08-18T11:35:17.850Z,9.90
2018-08-18T11:37:53.871Z,12.50
2018-08-18T11:40:22.947Z,10.97
2018-08-18T11:42:51.138Z,11.67
2018-08-18T11:45:20.413Z,9.63
2018-08-18T11:48:04.761Z,9.43
2018-08-18T11:50:32.918Z,11.03
2018-08-18T11:53:01.693Z,10.70
2018-08-18T11:55:29.821Z,10.00
2018-08-18T11:57:59.730Z,12.70
2018-08-18T12:00:32.512Z,9.90
2018-08-18T12:03:06.662Z,10.63
2018-08-18T12:05:41.966Z,10.87
2018-08-18T12:08:10.098Z,9.63
2018-08-18T12:10:38.305Z,9.37
2018-08-18T12:13:06.421Z,9.30
2018-08-18T12:15:44.555Z,9.53
2018-08-18T12:18:12.722Z,8.97
2018-08-18T12:20:40.857Z,9.93
2018-08-18T12:23:08.982Z,10.03
2018-08-18T12:25:37.122Z,8.50
2018-08-18T12:28:05.529Z,9.23
2018-08-18T12:30:33.781Z,9.43
2018-08-18T12:33:32.650Z,10.20
2018-08-18T12:36:00.962Z,8.53
2018-08-18T12:38:29.147Z,8.10
2018-08-18T12:40:57.273Z,7.70
2018-08-18T12:43:29.673Z,8.67
2018-08-18T12:45:58.306Z,8.07
2018-08-18T12:48:26.497Z,8.90
2018-08-18T12:50:54.622Z,9.30
2018-08-18T12:53:22.757Z,8.20
2018-08-18T12:56:05.615Z,10.27
2018-08-18T12:58:33.963Z,7.87
2018-08-18T13:01:02.312Z,8.60
2018-08-18T13:03:30.470Z,7.00
2018-08-18T13:06:05.093Z,9.07
2018-08-18T13:08:40.071Z,10.00
2018-08-18T13:11:08.330Z,8.63
2018-08-18T13:13:36.466Z,7.30
2018-08-18T13:16:04.598Z,7.10
2018-08-18T13:18:33.670Z,7.00
2018-08-18T13:21:01.770Z,7.63
2018-08-18T13:23:30.122Z,7.90
2018-08-18T13:25:58.514Z,9.10
2018-08-18T13:28:26.738Z,6.87
2018-08-18T13:30:54.878Z,7.37
2018-08-18T13:33:23.026Z,9.03
2018-08-18T13:35:51.191Z,7.80
2018-08-18T13:38:28.258Z,7.33
2018-08-18T13:40:56.606Z,7.80
2018-08-18T13:43:38.226Z,9.27
2018-08-18T13:46:06.773Z,7.23
2018-08-18T13:48:34.918Z,7.90
2018-08-18T13:51:03.070Z,8.20
2018-08-18T13:53:32.614Z,7.70
2018-08-18T13:56:00.779Z,7.47
2018-08-18T13:58:28.909Z,8.30
2018-08-18T14:00:57.058Z,6.90
2018-08-18T14:03:26.626Z,7.40
2018-08-18T14:05:55.387Z,9.40
2018-08-18T14:08:23.515Z,7.07
2018-08-18T14:10:51.703Z,9.23
2018-08-18T14:13:19.808Z,6.60
2018-08-18T14:16:02.694Z,7.47
2018-08-18T14:18:30.854Z,7.47
2018-08-18T14:21:07.362Z,7.27
2018-08-18T14:23:35.494Z,6.97
2018-08-18T14:26:03.631Z,7.20
2018-08-18T14:28:31.804Z,8.40
2018-08-18T14:30:59.907Z,7.27
2018-08-18T14:33:28.042Z,6.70
2018-08-18T14:36:05.518Z,7.40
2018-08-18T14:38:33.916Z,7.00
2018-08-18T14:41:02.141Z,6.80
2018-08-18T14:43:34.439Z,6.80
2018-08-18T14:46:02.598Z,6.53
2018-08-18T14:48:31.266Z,8.13
2018-08-18T14:50:59.434Z,7.37
2018-08-18T14:53:27.603Z,6.93
2018-08-18T14:55:55.751Z,7.10
2018-08-18T14:58:29.247Z,7.50
2018-08-18T15:01:02.729Z,8.40
2018-08-18T15:03:30.914Z,6.70
2018-08-18T15:05:59.050Z,7.33
2018-08-18T15:08:27.207Z,7.77
2018-08-18T15:10:55.338Z,7.10
2018-08-18T15:13:23.545Z,11.43
2018-08-18T15:15:51.674Z,7.57
2018-08-18T15:18:19.825Z,8.80
2018-08-18T15:20:48.090Z,7.30
2018-08-18T15:23:17.110Z,6.90
2018-08-18T15:25:46.098Z,7.33
2018-08-18T15:28:15.536Z,7.37
2018-08-18T15:30:45.158Z,7.57
2018-08-18T15:33:15.775Z,7.60
2018-08-18T15:35:43.908Z,10.97
2018-08-18T15:38:12.402Z,9.67
2018-08-18T15:40:40.777Z,9.97
2018-08-18T15:43:08.918Z,8.00
2018-08-18T15:46:08.242Z,8.60
2018-08-18T15:48:39.471Z,7.73
2018-08-18T15:51:07.709Z,8.17
2018-08-18T15:53:47.934Z,7.87
2018-08-18T15:56:16.155Z,8.63
2018-08-18T15:58:45.110Z,8.13
2018-08-18T16:01:13.239Z,7.73
2018-08-18T16:03:41.394Z,8.20
2018-08-18T16:06:09.523Z,8.00
2018-08-18T16:08:37.666Z,8.10
2018-08-18T16:11:06.102Z,10.20
2018-08-18T16:13:34.358Z,8.20
2018-08-18T16:18:37.095Z,13.73
2018-08-18T16:21:12.116Z,7.73
2018-08-18T16:23:41.159Z,7.73
2018-08-18T16:26:10.171Z,8.30
2018-08-18T16:28:38.863Z,7.93
2018-08-18T16:31:07.250Z,7.87
2018-08-18T16:33:35.394Z,7.60
2018-08-18T16:36:03.526Z,7.70
2018-08-18T16:38:31.666Z,8.20
2018-08-18T16:40:59.813Z,7.87
2018-08-18T16:43:28.994Z,10.17
2018-08-18T16:46:02.317Z,9.10
2018-08-18T16:48:30.567Z,8.30
2018-08-18T16:50:58.715Z,8.93
2018-08-18T16:53:26.870Z,8.40
2018-08-18T16:55:55.086Z,8.97
2018-08-18T16:58:23.246Z,8.57
2018-08-18T17:00:59.466Z,8.97
2018-08-18T17:03:37.198Z,9.03
2018-08-18T17:06:05.629Z,9.20
2018-08-18T17:08:33.783Z,8.60
2018-08-18T17:11:01.988Z,9.93
2018-08-18T17:13:33.937Z,8.87
2018-08-18T17:16:02.174Z,9.77
2018-08-18T17:18:30.567Z,9.00
2018-08-18T17:21:00.110Z,9.40
2018-08-18T17:23:30.330Z,9.23
2018-08-18T17:25:58.613Z,9.33
2018-08-18T17:28:27.394Z,9.30
2018-08-18T17:30:55.537Z,9.00
2018-08-18T17:33:24.973Z,8.33
2018-08-18T17:35:53.122Z,8.87
2018-08-18T17:38:21.617Z,9.10
2018-08-18T17:40:49.778Z,9.47
2018-08-18T17:43:19.099Z,10.57
2018-08-18T17:45:52.910Z,9.17
2018-08-18T17:48:21.592Z,9.17
2018-08-18T17:50:49.874Z,9.37
2018-08-18T17:53:18.115Z,11.90
2018-08-18T17:55:50.605Z,9.80
2018-08-18T17:58:19.833Z,9.23
2018-08-18T18:00:47.999Z,11.83
2018-08-18T18:03:16.166Z,9.33
2018-08-18T18:05:44.491Z,9.50
2018-08-18T18:08:12.622Z,10.10
2018-08-18T18:10:40.796Z,9.23
2018-08-18T18:13:15.521Z,10.40
2018-08-18T18:15:44.517Z,9.83
2018-08-18T18:18:14.320Z,9.90
2018-08-18T18:20:44.137Z,9.73
2018-08-18T18:23:12.922Z,9.37
2018-08-18T18:25:41.187Z,9.03
2018-08-18T18:28:09.364Z,10.23
2018-08-18T18:30:37.558Z,11.03
2018-08-18T18:33:06.617Z,10.87
2018-08-18T18:35:34.789Z,10.80
2018-08-18T18:38:03.921Z,11.47
2018-08-18T18:40:35.578Z,11.77
2018-08-18T18:43:03.726Z,11.03
2018-08-18T18:45:31.900Z,11.67
2018-08-18T18:48:00.046Z,12.93
2018-08-18T18:50:28.186Z,11.57
2018-08-18T18:52:56.329Z,12.33
2018-08-18T18:55:24.490Z,10.63
2018-08-18T18:58:06.205Z,10.63
2018-08-18T19:00:36.738Z,12.23
2018-08-18T19:03:06.510Z,10.77
2018-08-18T19:05:34.650Z,9.87
2018-08-18T19:08:13.549Z,10.27
2018-08-18T19:10:41.698Z,10.33
2018-08-18T19:13:10.193Z,11.40
2018-08-18T19:15:38.389Z,10.13
2018-08-18T19:18:07.316Z,12.63
2018-08-18T19:20:35.470Z,11.60
2018-08-18T19:23:10.297Z,10.17
2018-08-18T19:25:39.673Z,10.73
2018-08-18T19:28:15.732Z,9.97
2018-08-18T19:30:43.886Z,12.40
2018-08-18T19:33:13.202Z,11.37
2018-08-18T19:35:42.619Z,12.30
2018-08-18T19:38:11.194Z,10.73
2018-08-18T19:40:40.617Z,10.10
2018-08-18T19:43:10.825Z,9.93
2018-08-18T19:45:39.006Z,10.77
2018-08-18T19:48:07.438Z,12.27
2018-08-18T19:50:35.598Z,10.73
2018-08-18T19:53:09.010Z,10.87
2018-08-18T19:55:37.162Z,10.70
2018-08-18T19:58:05.402Z,11.70
2018-08-18T20:00:33.544Z,11.10
2018-08-18T20:03:10.762Z,10.80
2018-08-18T20:05:38.952Z,10.50
2018-08-18T20:08:07.126Z,11.50
2018-08-18T20:10:43.589Z,10.57
2018-08-18T20:13:12.214Z,13.23
2018-08-18T20:15:40.370Z,10.47
2018-08-18T20:18:08.520Z,10.40
2018-08-18T20:20:36.666Z,10.13
2018-08-18T20:23:04.874Z,9.27
2018-08-18T20:25:33.013Z,9.83
2018-08-18T20:28:01.160Z,9.87
2018-08-18T20:30:29.290Z,10.23
2018-08-18T20:32:57.419Z,9.43
2018-08-18T20:35:26.325Z,11.17
2018-08-18T20:37:54.451Z,9.20
2018-08-18T20:40:22.592Z,10.43
2018-08-18T20:42:53.561Z,10.13
2018-08-18T20:45:22.415Z,10.37
2018-08-18T20:47:50.498Z,10.33
2018-08-18T20:50:18.666Z,10.13
2018-08-18T20:52:46.807Z,10.63
2018-08-18T20:55:14.930Z,9.27
2018-08-18T20:57:43.074Z,11.37
2018-08-18T21:00:11.843Z,9.30
2018-08-18T21:02:40.137Z,9.07
2018-08-18T21:05:10.026Z,8.80
2018-08-18T21:07:38.183Z,9.47
2018-08-18T21:10:09.781Z,10.03
2018-08-18T21:12:42.158Z,9.37
2018-08-18T21:15:17.682Z,10.20
2018-08-18T21:17:45.873Z,9.60
2018-08-18T21:20:16.218Z,9.37
2018-08-18T21:22:44.341Z,9.73
2018-08-18T21:25:13.468Z,9.77
2018-08-18T21:27:41.946Z,9.50
2018-08-18T21:30:13.151Z,10.37
2018-08-18T21:32:41.452Z,8.37
2018-08-18T21:35:09.560Z,9.43
2018-08-18T21:37:37.735Z,9.27
2018-08-18T21:40:09.918Z,9.67
2018-08-18T21:42:39.070Z,9.70
2018-08-18T21:45:09.528Z,9.83
2018-08-18T21:47:38.107Z,9.90
2018-08-18T21:50:07.223Z,9.70
2018-08-18T21:52:36.062Z,8.70
2018-08-18T21:55:04.324Z,9.83
2018-08-18T21:57:43.073Z,8.93
2018-08-18T22:00:11.235Z,9.90
2018-08-18T22:02:41.522Z,10.77
2018-08-18T22:05:13.061Z,10.57
2018-08-18T22:07:48.454Z,10.13
2018-08-18T22:10:16.612Z,9.70
2018-08-18T22:12:44.762Z,11.50
2018-08-18T22:15:17.397Z,9.60
2018-08-18T22:17:46.390Z,10.17
2018-08-18T22:20:15.075Z,9.83
2018-08-18T22:22:43.275Z,10.80
2018-08-18T22:25:11.489Z,10.77
2018-08-18T22:27:39.622Z,9.93
2018-08-18T22:30:10.846Z,10.60
2018-08-18T22:32:39.893Z,10.63
2018-08-18T22:35:08.947Z,11.13
2018-08-18T22:37:37.090Z,11.97
2018-08-18T22:40:05.688Z,10.93
2018-08-18T22:42:33.846Z,10.60
2018-08-18T22:45:13.508Z,11.03
2018-08-18T22:47:42.389Z,10.20
2018-08-18T22:50:10.572Z,10.77
2018-08-18T22:52:38.722Z,10.83
2018-08-18T22:55:06.966Z,9.60
2018-08-18T22:57:35.106Z,14.50
2018-08-18T23:00:03.267Z,10.20
2018-08-18T23:02:31.418Z,10.67
2018-08-18T23:04:59.562Z,9.97
2018-08-18T23:07:27.738Z,11.43
2018-08-18T23:09:55.881Z,9.90
2018-08-18T23:12:24.041Z,10.87
2018-08-18T23:14:52.215Z,9.83
2018-08-18T23:17:20.366Z,10.33
2018-08-18T23:19:48.535Z,10.00
2018-08-18T23:22:28.182Z,9.60
2018-08-18T23:24:56.383Z,10.47
2018-08-18T23:27:24.588Z,11.20
2018-08-18T23:29:52.743Z,11.57
2018-08-18T23:32:25.301Z,9.70
2018-08-18T23:34:53.643Z,10.90
2018-08-18T23:37:21.939Z,12.13
2018-08-18T23:39:52.361Z,11.63
2018-08-18T23:42:21.989Z,10.23
2018-08-18T23:44:50.130Z,11.70
2018-08-18T23:47:18.754Z,10.67
2018-08-18T23:49:47.000Z,11.13
2018-08-18T23:52:15.148Z,11.13
2018-08-18T23:54:43.286Z,11.30
2018-08-18T23:57:11.495Z,14.93
2018-08-18T23:59:39.645Z,13.50
